createdAt,value
2022-09-17T00:01:43.104Z,97286.78
2022-09-17T00:04:11.835Z,97289.47
2022-09-17T00:06:41.827Z,97292.16
2022-09-17T00:09:10.604Z,97287.81
2022-09-17T00:11:40.639Z,97283.28
2022-09-17T00:14:14.375Z,97288.66
2022-09-17T00:16:44.142Z,97287.00
2022-09-17T00:19:17.024Z,97291.56
2022-09-17T00:21:45.837Z,97287.19
2022-09-17T00:24:15.357Z,97288.88
2022-09-17T00:26:44.126Z,97283.69
2022-09-17T00:29:14.362Z,97276.44
2022-09-17T00:31:43.212Z,97281.00
2022-09-17T00:34:12.324Z,97277.50
2022-09-17T00:36:41.301Z,97282.88
2022-09-17T00:39:11.728Z,97287.41
2022-09-17T00:41:40.541Z,97286.56
2022-09-17T00:44:53.080Z,97288.25
2022-09-17T00:47:28.897Z,97288.25
2022-09-17T00:49:59.123Z,97282.03
2022-09-17T00:52:30.882Z,97286.56
2022-09-17T00:55:02.431Z,97290.09
2022-09-17T00:57:31.517Z,97285.75
2022-09-17T01:00:00.351Z,97291.94
2022-09-17T01:02:30.493Z,97287.59
2022-09-17T01:04:59.472Z,97277.69
2022-09-17T01:07:44.232Z,97279.53
2022-09-17T01:10:18.681Z,97283.28
2022-09-17T01:12:58.855Z,97280.59
2022-09-17T01:15:31.950Z,97276.84
2022-09-17T01:18:13.019Z,97275.22
2022-09-17T01:21:15.209Z,97277.03
2022-09-17T01:23:54.635Z,97276.22
2022-09-17T01:26:52.013Z,97271.69
2022-09-17T01:29:27.331Z,97272.31
2022-09-17T01:31:59.149Z,97264.88
2022-09-17T01:34:30.118Z,97267.75
2022-09-17T01:37:03.446Z,97264.47
2022-09-17T01:39:41.532Z,97267.16
2022-09-17T01:42:16.950Z,97256.59
2022-09-17T01:44:50.779Z,97267.34
2022-09-17T01:47:23.448Z,97263.00
2022-09-17T01:49:53.261Z,97271.06
2022-09-17T01:52:22.429Z,97270.22
2022-09-17T01:54:52.204Z,97270.22
2022-09-17T01:57:24.331Z,97266.72
2022-09-17T01:59:54.056Z,97272.09
2022-09-17T02:02:27.760Z,97264.84
2022-09-17T02:04:59.106Z,97276.63
2022-09-17T02:07:27.909Z,97265.88
2022-09-17T02:09:59.447Z,97270.44
2022-09-17T02:12:31.606Z,97271.25
2022-09-17T02:15:01.841Z,97274.16
2022-09-17T02:17:33.711Z,97273.31
2022-09-17T02:20:02.694Z,97277.69
2022-09-17T02:22:34.011Z,97280.38
2022-09-17T02:25:05.476Z,97286.75
2022-09-17T02:27:43.237Z,97284.06
2022-09-17T02:30:12.370Z,97282.41
2022-09-17T02:32:43.145Z,97282.41
2022-09-17T02:35:13.415Z,97279.75
2022-09-17T02:37:42.220Z,97279.75
2022-09-17T02:40:11.764Z,97280.78
2022-09-17T02:42:52.026Z,97279.09
2022-09-17T02:45:25.009Z,97277.25
2022-09-17T02:48:10.735Z,97271.03
2022-09-17T02:50:47.704Z,97273.72
2022-09-17T02:53:31.808Z,97268.34
2022-09-17T02:56:03.494Z,97268.56
2022-09-17T02:58:34.202Z,97276.63
2022-09-17T03:01:06.389Z,97284.47
2022-09-17T03:03:37.397Z,97282.00
2022-09-17T03:06:07.014Z,97281.16
2022-09-17T03:08:38.225Z,97282.84
2022-09-17T03:11:08.876Z,97278.47
2022-09-17T03:13:37.642Z,97282.00
2022-09-17T03:16:06.896Z,97279.50
2022-09-17T03:18:37.026Z,97270.63
2022-09-17T03:21:05.834Z,97276.00
2022-09-17T03:23:34.791Z,97276.00
2022-09-17T03:26:03.504Z,97266.06
2022-09-17T03:28:32.180Z,97262.75
2022-09-17T03:31:01.723Z,97258.22
2022-09-17T03:33:31.045Z,97257.38
2022-09-17T03:36:01.162Z,97256.56
2022-09-17T03:38:30.352Z,97251.19
2022-09-17T03:41:00.185Z,97256.56
2022-09-17T03:43:28.968Z,97249.53
2022-09-17T03:45:57.765Z,97248.72
2022-09-17T03:48:26.564Z,97250.38
2022-09-17T03:50:55.400Z,97243.34
2022-09-17T03:53:25.523Z,97237.13
2022-09-17T03:55:54.335Z,97241.69
2022-09-17T03:58:23.916Z,97237.13
2022-09-17T04:00:53.435Z,97244.38
2022-09-17T04:03:22.727Z,97225.56
2022-09-17T04:05:51.495Z,97235.47
2022-09-17T04:08:20.325Z,97231.97
2022-09-17T04:10:50.623Z,97236.53
2022-09-17T04:13:19.447Z,97237.34
2022-09-17T04:15:48.700Z,97241.03
2022-09-17T04:18:17.461Z,97231.16
2022-09-17T04:20:46.206Z,97243.72
2022-09-17T04:23:14.850Z,97233.00
2022-09-17T04:25:43.583Z,97227.84
2022-09-17T04:28:13.649Z,97228.66
2022-09-17T04:30:43.272Z,97231.34
2022-09-17T04:33:11.977Z,97224.31
2022-09-17T04:35:40.644Z,97220.78
2022-09-17T04:38:10.018Z,97227.00
2022-09-17T04:40:38.792Z,97221.63
2022-09-17T04:43:07.880Z,97221.63
2022-09-17T04:45:37.874Z,97229.69
2022-09-17T04:48:06.648Z,97227.19
2022-09-17T04:50:35.423Z,97216.47
2022-09-17T04:53:04.163Z,97223.47
2022-09-17T04:55:32.887Z,97233.41
2022-09-17T04:58:01.822Z,97225.34
2022-09-17T05:00:31.013Z,97219.97
2022-09-17T05:03:01.009Z,97225.34
2022-09-17T05:05:29.684Z,97240.44
2022-09-17T05:07:58.401Z,97249.50
2022-09-17T05:10:27.146Z,97239.59
2022-09-17T05:12:56.804Z,97244.78
2022-09-17T05:15:26.021Z,97242.72
2022-09-17T05:17:54.678Z,97249.75
2022-09-17T05:20:24.857Z,97249.09
2022-09-17T05:22:53.811Z,97242.72
2022-09-17T05:25:24.245Z,97246.41
2022-09-17T05:27:53.127Z,97244.59
2022-09-17T05:30:21.994Z,97236.53
2022-09-17T05:32:50.712Z,97240.22
2022-09-17T05:35:19.641Z,97240.22
2022-09-17T05:37:49.671Z,97244.59
2022-09-17T05:40:18.673Z,97247.28
2022-09-17T05:42:47.460Z,97251.59
2022-09-17T05:45:16.134Z,97239.22
2022-09-17T05:47:44.804Z,97249.97
2022-09-17T05:50:13.797Z,97247.47
2022-09-17T05:52:43.745Z,97259.84
2022-09-17T05:55:13.898Z,97250.78
2022-09-17T05:57:42.801Z,97257.38
2022-09-17T06:00:12.840Z,97256.16
2022-09-17T06:02:41.804Z,97258.03
2022-09-17T06:05:10.927Z,97249.13
2022-09-17T06:07:39.875Z,97254.50
2022-09-17T06:10:09.541Z,97251.59
2022-09-17T06:12:39.623Z,97258.66
2022-09-17T06:15:08.993Z,97236.13
2022-09-17T06:17:37.905Z,97228.69
2022-09-17T06:20:07.305Z,97222.47
2022-09-17T06:22:35.980Z,97208.22
2022-09-17T06:25:05.029Z,97224.53
2022-09-17T06:27:33.985Z,97226.81
2022-09-17T06:30:04.245Z,97223.94
2022-09-17T06:32:33.378Z,97232.00
2022-09-17T06:35:02.521Z,97237.16
2022-09-17T06:37:31.620Z,97239.44
2022-09-17T06:40:00.516Z,97239.44
2022-09-17T06:42:29.898Z,97260.72
2022-09-17T06:45:00.399Z,97260.72
2022-09-17T06:47:34.733Z,97259.09
2022-09-17T06:50:03.721Z,97256.59
2022-09-17T06:52:32.396Z,97257.41
2022-09-17T06:55:01.292Z,97256.41
2022-09-17T06:57:29.957Z,97263.59
2022-09-17T06:59:58.739Z,97261.78
2022-09-17T07:02:27.502Z,97260.72
2022-09-17T07:04:57.982Z,97273.97
2022-09-17T07:07:26.687Z,97277.69
2022-09-17T07:09:55.447Z,97275.22
2022-09-17T07:12:24.123Z,97266.31
2022-09-17T07:14:52.837Z,97264.88
2022-09-17T07:17:21.625Z,97271.28
2022-09-17T07:19:51.188Z,97267.75
2022-09-17T07:22:21.447Z,97272.31
2022-09-17T07:24:50.209Z,97278.50
2022-09-17T07:27:18.920Z,97283.88
2022-09-17T07:29:47.710Z,97281.19
2022-09-17T07:32:16.497Z,97287.41
2022-09-17T07:34:45.161Z,97272.31
2022-09-17T07:37:14.073Z,97288.66
2022-09-17T07:39:44.301Z,97294.41
2022-09-17T07:42:13.145Z,97294.03
2022-09-17T07:44:41.860Z,97294.84
2022-09-17T07:47:10.786Z,97298.16
2022-09-17T07:49:39.534Z,97309.75
2022-09-17T07:52:08.366Z,97306.22
2022-09-17T07:54:38.023Z,97304.16
2022-09-17T07:57:08.183Z,97301.44
2022-09-17T07:59:37.273Z,97289.47
2022-09-17T08:02:06.207Z,97283.47
2022-09-17T08:04:35.003Z,97273.34
2022-09-17T08:07:03.790Z,97279.13
2022-09-17T08:09:32.557Z,97278.50
2022-09-17T08:12:01.206Z,97284.09
2022-09-17T08:14:31.436Z,97288.25
2022-09-17T08:17:00.159Z,97287.41
2022-09-17T08:19:32.056Z,97288.44
2022-09-17T08:22:00.807Z,97279.53
2022-09-17T08:24:29.813Z,97276.84
2022-09-17T08:26:58.502Z,97265.47
2022-09-17T08:29:27.208Z,97261.97
2022-09-17T08:31:57.260Z,97271.91
2022-09-17T08:34:25.968Z,97283.06
2022-09-17T08:36:54.709Z,97276.22
2022-09-17T08:39:23.361Z,97282.41
2022-09-17T08:41:56.183Z,97286.16
2022-09-17T08:44:29.034Z,97283.25
2022-09-17T08:47:02.292Z,97284.06
2022-09-17T08:49:37.940Z,97276.00
2022-09-17T08:52:16.436Z,97267.94
2022-09-17T08:54:48.648Z,97250.81
2022-09-17T08:57:20.162Z,97246.44
2022-09-17T08:59:51.162Z,97248.72
2022-09-17T09:02:25.944Z,97252.88
2022-09-17T09:05:07.033Z,97267.34
2022-09-17T09:07:38.152Z,97269.41
2022-09-17T09:10:14.306Z,97269.59
2022-09-17T09:12:42.960Z,97266.06
2022-09-17T09:15:38.847Z,97271.44
2022-09-17T09:18:17.985Z,97284.88
2022-09-17T09:20:51.810Z,97277.88
2022-09-17T09:23:21.775Z,97287.38
2022-09-17T09:25:55.712Z,97288.22
2022-09-17T09:28:44.540Z,97304.75
2022-09-17T09:31:45.543Z,97292.94
2022-09-17T09:34:15.736Z,97304.75
2022-09-17T09:36:44.800Z,97301.41
2022-09-17T09:39:16.236Z,97302.25
2022-09-17T09:41:47.006Z,97293.34
2022-09-17T09:44:17.222Z,97295.81
2022-09-17T09:47:15.591Z,97295.22
2022-09-17T09:49:59.845Z,97300.19
2022-09-17T09:52:37.052Z,97300.59
2022-09-17T09:55:16.057Z,97302.28
2022-09-17T09:57:46.003Z,97292.34
2022-09-17T10:00:29.311Z,97289.25
2022-09-17T10:03:01.418Z,97295.66
2022-09-17T10:05:31.878Z,97302.09
2022-09-17T10:08:00.692Z,97301.03
2022-09-17T10:10:29.799Z,97297.94
2022-09-17T10:13:08.528Z,97293.59
2022-09-17T10:15:37.654Z,97290.47
2022-09-17T10:18:18.885Z,97298.75
2022-09-17T10:21:09.782Z,97296.09
2022-09-17T10:23:38.809Z,97301.88
2022-09-17T10:26:07.602Z,97304.56
2022-09-17T10:28:45.331Z,97303.50
2022-09-17T10:31:15.235Z,97312.84
2022-09-17T10:33:57.634Z,97310.94
2022-09-17T10:36:43.918Z,97315.06
2022-09-17T10:39:31.984Z,97313.41
2022-09-17T10:42:02.722Z,97296.09
2022-09-17T10:44:32.370Z,97293.59
2022-09-17T10:47:06.091Z,97306.19
2022-09-17T10:49:40.943Z,97317.16
2022-09-17T10:52:19.424Z,97324.19
2022-09-17T10:55:30.001Z,97314.88
2022-09-17T10:58:18.553Z,97318.00
2022-09-17T11:00:53.684Z,97308.88
2022-09-17T11:03:56.072Z,97313.84
2022-09-17T11:06:36.414Z,97318.81
2022-09-17T11:09:12.762Z,97326.06
2022-09-17T11:11:48.718Z,97321.28
2022-09-17T11:14:25.516Z,97311.78
2022-09-17T11:16:58.876Z,97308.91
2022-09-17T11:19:32.209Z,97312.63
2022-09-17T11:22:04.193Z,97326.28
2022-09-17T11:24:48.428Z,97333.69
2022-09-17T11:27:31.032Z,97343.81
2022-09-17T11:30:06.285Z,97332.44
2022-09-17T11:32:53.904Z,97335.34
2022-09-17T11:35:24.008Z,97337.63
2022-09-17T11:37:57.725Z,97339.06
2022-09-17T11:40:33.896Z,97335.97
2022-09-17T11:43:04.826Z,97325.63
2022-09-17T11:45:35.064Z,97326.28
2022-09-17T11:48:06.823Z,97331.25
2022-09-17T11:50:37.882Z,97331.25
2022-09-17T11:53:08.169Z,97333.09
2022-09-17T11:55:41.139Z,97313.44
2022-09-17T11:58:14.508Z,97318.81
2022-09-17T12:00:46.828Z,97323.19
2022-09-17T12:03:17.746Z,97316.56
2022-09-17T12:05:48.105Z,97312.22
2022-09-17T12:08:18.119Z,97313.25
2022-09-17T12:10:50.893Z,97304.38
2022-09-17T12:13:25.709Z,97310.78
2022-09-17T12:16:01.535Z,97307.88
2022-09-17T12:18:34.048Z,97303.53
2022-09-17T12:21:04.620Z,97300.22
2022-09-17T12:23:38.875Z,97293.19
2022-09-17T12:26:15.486Z,97276.25
2022-09-17T12:28:47.866Z,97272.53
2022-09-17T12:31:18.740Z,97270.06
2022-09-17T12:33:48.773Z,97259.31
2022-09-17T12:36:22.651Z,97273.97
2022-09-17T12:39:30.938Z,97258.03
2022-09-17T12:42:04.660Z,97250.19
2022-09-17T12:45:03.124Z,97247.28
2022-09-17T12:47:47.718Z,97250.19
2022-09-17T12:50:31.323Z,97248.34
2022-09-17T12:53:08.365Z,97236.56
2022-09-17T12:55:45.571Z,97250.00
2022-09-17T12:58:26.717Z,97242.97
2022-09-17T13:00:58.474Z,97250.00
2022-09-17T13:03:29.829Z,97252.69
2022-09-17T13:06:45.315Z,97260.75
2022-09-17T13:10:02.747Z,97253.72
2022-09-17T13:12:34.136Z,97235.94
2022-09-17T13:15:21.681Z,97240.28
2022-09-17T13:18:12.708Z,97232.63
2022-09-17T13:20:49.527Z,97236.56
2022-09-17T13:23:18.227Z,97228.28
2022-09-17T13:25:51.966Z,97232.22
2022-09-17T13:28:20.383Z,97224.38
2022-09-17T13:30:59.927Z,97234.91
2022-09-17T13:33:54.617Z,97235.72
2022-09-17T13:36:47.159Z,97236.94
2022-09-17T13:39:46.360Z,97246.88
2022-09-17T13:42:24.590Z,97246.06
2022-09-17T13:44:55.015Z,97242.56
2022-09-17T13:47:27.697Z,97254.94
2022-09-17T13:50:00.074Z,97254.13
2022-09-17T13:52:35.190Z,97254.31
2022-09-17T13:55:04.058Z,97267.75
2022-09-17T13:57:33.618Z,97243.78
2022-09-17T14:00:02.480Z,97227.66
2022-09-17T14:02:37.682Z,97208.84
2022-09-17T14:05:31.071Z,97198.94
2022-09-17T14:08:31.260Z,97183.63
2022-09-17T14:11:03.982Z,97189.22
2022-09-17T14:13:50.563Z,97175.78
2022-09-17T14:16:40.543Z,97165.03
2022-09-17T14:19:36.960Z,97160.66
2022-09-17T14:22:15.201Z,97174.09
2022-09-17T14:24:50.057Z,97175.78
2022-09-17T14:27:48.213Z,97179.50
2022-09-17T14:30:19.590Z,97200.59
2022-09-17T14:33:00.301Z,97201.41
2022-09-17T14:35:36.652Z,97212.16
2022-09-17T14:38:10.544Z,97219.00
2022-09-17T14:40:43.493Z,97215.25
2022-09-17T14:43:17.516Z,97234.25
2022-09-17T14:45:45.952Z,97236.75
2022-09-17T14:48:31.642Z,97220.00
2022-09-17T14:51:30.386Z,97218.78
2022-09-17T14:54:22.231Z,97218.16
2022-09-17T14:56:56.437Z,97208.41
2022-09-17T14:59:43.503Z,97214.63
2022-09-17T15:02:31.941Z,97203.88
2022-09-17T15:05:00.686Z,97201.41
2022-09-17T15:07:30.698Z,97199.53
2022-09-17T15:10:09.555Z,97197.88
2022-09-17T15:12:38.768Z,97192.50
2022-09-17T15:15:11.190Z,97187.31
2022-09-17T15:17:39.680Z,97192.69
2022-09-17T15:20:11.209Z,97191.88
2022-09-17T15:22:41.063Z,97197.25
2022-09-17T15:25:11.449Z,97200.75
2022-09-17T15:27:41.290Z,97195.41
2022-09-17T15:30:14.330Z,97190.88
2022-09-17T15:32:44.256Z,97203.44
2022-09-17T15:35:22.097Z,97207.19
2022-09-17T15:40:42.114Z,97220.44
2022-09-17T15:43:18.601Z,97223.31
2022-09-17T15:45:47.061Z,97219.81
2022-09-17T15:48:35.723Z,97223.13
2022-09-17T15:51:05.461Z,97228.69
2022-09-17T15:53:36.472Z,97226.00
2022-09-17T15:56:07.493Z,97208.22
2022-09-17T15:58:39.081Z,97214.63
2022-09-17T16:01:55.993Z,97211.75
2022-09-17T16:04:32.261Z,97212.56
2022-09-17T16:07:25.457Z,97213.78
2022-09-17T16:09:55.440Z,97209.25
2022-09-17T16:12:24.897Z,97210.06
2022-09-17T16:14:54.353Z,97215.44
2022-09-17T16:17:29.460Z,97218.97
2022-09-17T16:20:02.508Z,97224.94
2022-09-17T16:22:33.819Z,97221.66
2022-09-17T16:25:03.903Z,97223.50
2022-09-17T16:27:34.148Z,97231.56
2022-09-17T16:30:09.419Z,97230.31
2022-09-17T16:32:37.969Z,97234.06
2022-09-17T16:35:07.082Z,97226.19
2022-09-17T16:37:35.572Z,97223.31
2022-09-17T16:40:06.596Z,97221.84
2022-09-17T16:42:35.148Z,97221.03
2022-09-17T16:45:04.219Z,97221.03
2022-09-17T16:47:37.267Z,97223.72
2022-09-17T16:50:07.321Z,97228.28
2022-09-17T16:52:35.853Z,97224.72
2022-09-17T16:55:06.646Z,97222.03
2022-09-17T16:57:35.347Z,97228.28
2022-09-17T17:00:05.364Z,97221.66
2022-09-17T17:02:34.277Z,97222.69
2022-09-17T17:05:02.687Z,97230.31
2022-09-17T17:07:32.230Z,97222.47
2022-09-17T17:10:00.645Z,97227.41
2022-09-17T17:12:31.072Z,97215.84
2022-09-17T17:14:59.494Z,97209.66
2022-09-17T17:17:28.130Z,97212.56
2022-09-17T17:19:56.590Z,97211.75
2022-09-17T17:22:25.205Z,97202.22
2022-09-17T17:24:53.591Z,97203.25
2022-09-17T17:27:22.092Z,97201.41
2022-09-17T17:29:52.351Z,97202.22
2022-09-17T17:32:20.783Z,97185.47
2022-09-17T17:34:50.386Z,97189.81
2022-09-17T17:37:18.977Z,97184.44
2022-09-17T17:39:47.477Z,97183.59
2022-09-17T17:42:15.929Z,97190.84
2022-09-17T17:44:45.236Z,97191.91
2022-09-17T17:47:15.014Z,97192.72
2022-09-17T17:49:44.641Z,97197.25
2022-09-17T17:52:13.517Z,97194.56
2022-09-17T17:54:41.951Z,97194.56
2022-09-17T17:57:11.510Z,97195.19
2022-09-17T17:59:39.985Z,97198.91
2022-09-17T18:02:08.775Z,97202.41
2022-09-17T18:04:38.657Z,97203.25
2022-09-17T18:07:07.949Z,97208.00
2022-09-17T18:09:36.876Z,97204.69
2022-09-17T18:12:05.714Z,97204.69
2022-09-17T18:14:34.157Z,97213.56
2022-09-17T18:17:02.700Z,97218.31
2022-09-17T18:19:31.128Z,97211.13
2022-09-17T18:22:01.022Z,97207.56
2022-09-17T18:24:29.629Z,97213.38
2022-09-17T18:26:58.070Z,97214.41
2022-09-17T18:29:26.645Z,97212.97
2022-09-17T18:31:55.149Z,97220.44
2022-09-17T18:34:23.673Z,97226.63
2022-09-17T18:36:53.045Z,97231.78
2022-09-17T18:42:11.714Z,97219.56
2022-09-17T18:44:41.907Z,97209.25
2022-09-17T18:47:10.334Z,97219.16
2022-09-17T18:49:38.825Z,97210.69
2022-09-17T18:52:07.519Z,97208.00
2022-09-17T18:54:37.484Z,97212.72
2022-09-17T18:57:06.609Z,97213.16
2022-09-17T18:59:35.481Z,97207.56
2022-09-17T19:02:04.087Z,97216.47
2022-09-17T19:04:33.180Z,97212.75
2022-09-17T19:07:02.012Z,97218.13
2022-09-17T19:09:30.543Z,97216.25
2022-09-17T19:12:01.138Z,97219.78
2022-09-17T19:14:31.261Z,97212.75
2022-09-17T19:16:59.646Z,97227.00
2022-09-17T19:19:29.100Z,97229.69
2022-09-17T19:21:57.561Z,97230.53
2022-09-17T19:24:25.984Z,97229.69
2022-09-17T19:26:55.296Z,97235.28
2022-09-17T19:29:25.224Z,97235.28
2022-09-17T19:31:53.847Z,97231.56
2022-09-17T19:34:22.904Z,97229.91
2022-09-17T19:36:52.226Z,97232.38
2022-09-17T19:39:20.629Z,97223.50
2022-09-17T19:41:49.028Z,97217.50
2022-09-17T19:44:17.929Z,97218.31
2022-09-17T19:46:50.123Z,97215.63
2022-09-17T19:49:19.128Z,97227.84
2022-09-17T19:51:48.209Z,97221.22
2022-09-17T19:54:16.799Z,97217.09
2022-09-17T19:56:45.469Z,97222.47
2022-09-17T19:59:13.918Z,97216.06
2022-09-17T20:01:46.087Z,97218.94
2022-09-17T20:04:19.539Z,97218.13
2022-09-17T20:06:48.278Z,97224.53
2022-09-17T20:09:18.253Z,97218.75
2022-09-17T20:11:47.127Z,97220.19
2022-09-17T20:14:15.739Z,97218.53
2022-09-17T20:16:45.137Z,97217.09
2022-09-17T20:19:16.219Z,97217.72
2022-09-17T20:21:46.233Z,97210.91
2022-09-17T20:24:15.583Z,97215.41
2022-09-17T20:26:44.654Z,97206.53
2022-09-17T20:29:13.713Z,97208.41
2022-09-17T20:31:42.763Z,97215.63
2022-09-17T20:34:11.761Z,97219.34
2022-09-17T20:36:40.537Z,97221.41
2022-09-17T20:39:15.492Z,97229.66
2022-09-17T20:41:46.593Z,97235.66
2022-09-17T20:44:15.094Z,97222.25
2022-09-17T20:46:43.984Z,97218.72
2022-09-17T20:49:12.734Z,97222.44
2022-09-17T20:51:41.669Z,97211.88
2022-09-17T20:54:11.477Z,97218.06
2022-09-17T20:56:39.998Z,97213.75
2022-09-17T20:59:15.200Z,97214.75
2022-09-17T21:01:45.149Z,97213.13
2022-09-17T21:04:16.112Z,97209.78
2022-09-17T21:06:44.986Z,97208.75
2022-09-17T21:09:17.043Z,97205.06
2022-09-17T21:11:46.210Z,97207.09
2022-09-17T21:14:15.932Z,97208.75
2022-09-17T21:16:44.878Z,97205.25
2022-09-17T21:19:14.194Z,97206.28
2022-09-17T21:21:42.573Z,97209.97
2022-09-17T21:24:11.193Z,97209.97
2022-09-17T21:26:41.041Z,97217.03
2022-09-17T21:29:09.601Z,97209.16
2022-09-17T21:31:38.426Z,97209.97
2022-09-17T21:34:08.432Z,97205.66
2022-09-17T21:36:38.195Z,97215.34
2022-09-17T21:39:08.228Z,97217.22
2022-09-17T21:41:42.051Z,97208.16
2022-09-17T21:44:12.743Z,97212.06
2022-09-17T21:46:41.725Z,97212.06
2022-09-17T21:49:10.368Z,97211.84
2022-09-17T21:51:39.598Z,97216.41
2022-09-17T21:54:09.059Z,97211.25
2022-09-17T21:56:37.546Z,97209.56
2022-09-17T21:59:08.199Z,97220.31
2022-09-17T22:01:40.967Z,97218.44
2022-09-17T22:04:10.699Z,97217.63
2022-09-17T22:06:39.196Z,97214.13
2022-09-17T22:09:08.170Z,97218.66
2022-09-17T22:11:37.782Z,97208.94
2022-09-17T22:14:09.231Z,97222.38
2022-09-17T22:16:40.251Z,97211.84
2022-09-17T22:19:09.379Z,97213.72
2022-09-17T22:21:39.844Z,97209.97
2022-09-17T22:24:08.656Z,97211.84
2022-09-17T22:26:39.425Z,97212.03
2022-09-17T22:29:10.448Z,97213.72
2022-09-17T22:31:40.492Z,97207.47
2022-09-17T22:34:09.033Z,97212.03
2022-09-17T22:36:37.694Z,97207.47
2022-09-17T22:39:06.635Z,97206.66
2022-09-17T22:41:36.780Z,97202.13
2022-09-17T22:44:06.598Z,97203.78
2022-09-17T22:46:36.195Z,97199.25
2022-09-17T22:49:06.230Z,97194.69
2022-09-17T22:51:34.749Z,97199.25
2022-09-17T22:54:03.247Z,97199.25
2022-09-17T22:56:32.221Z,97191.59
2022-09-17T22:59:00.632Z,97191.81
2022-09-17T23:01:31.271Z,97188.50
2022-09-17T23:04:00.260Z,97186.00
2022-09-17T23:06:31.251Z,97192.41
2022-09-17T23:08:59.944Z,97190.78
2022-09-17T23:11:30.586Z,97194.28
2022-09-17T23:14:02.157Z,97195.28
2022-09-17T23:16:30.945Z,97186.41
2022-09-17T23:18:59.477Z,97190.97
2022-09-17T23:21:29.207Z,97190.13
2022-09-17T23:23:57.957Z,97197.97
2022-09-17T23:26:28.450Z,97194.69
2022-09-17T23:29:01.164Z,97196.34
2022-09-17T23:31:34.855Z,97194.69
2022-09-17T23:34:04.001Z,97201.91
2022-09-17T23:36:35.068Z,97196.56
2022-09-17T23:39:03.982Z,97196.56
2022-09-17T23:41:33.425Z,97198.38
2022-09-17T23:44:03.359Z,97202.75
2022-09-17T23:46:33.554Z,97199.22
2022-09-17T23:49:02.222Z,97198.38
2022-09-17T23:51:31.728Z,97194.69
2022-09-17T23:54:01.563Z,97198.38
2022-09-17T23:56:30.154Z,97198.38
2022-09-17T23:59:00.710Z,97201.06
